PWSweather.com
Personal Weather Stations
Station Observations
BANEKERE1
AntwerpenBE

AntwerpenBE

Lat: 51.2809101, Lon: 4.4202713

Elevation: 40

Station Type:

http://www.akker.be

Latest ConditionsUpdated 6:40:02 PM GMT+01:01 Monday, Jul 25, 2016
Currently Today's Max Today's Min Today's Average
Temperature 73.0°F22.8°C 75.8°F24.3°C 64.6°F18.1°C 69.8°F21.0°C
Dew Point 59.2°F15.1°C 66.8°F19.3°C 59.2°F15.1°C 62.5°F16.9°C
Winds 2.3 mph NNE3.7 kmh NNE 9.2 mph S14.8 kmh S - 3.6 mph 5.8 kmh
Wind Gusts 5.8 mph9.3 kmh 12.7 mph20.4 kmh - -
Humidity 62% 88% 62% 78%
Pressure 30.12 in1020.0 mb 30.12 in1020.0 mb 30.09 in1019.0 mb -
Precipitation - 0.02 in0.5 mm - -
Hour Temp Dew Point Humidity Winds Wind Gusts Pressure Precip Precip Rate Daily Precip Total
06:40 PM 73.0°F22.8°C 59.2°F15.1°C 62% 2.3 mph NNE3.7 kmh NNE 5.8 mph9.3 kmh 30.12 in1020.0 mb - 0.00 in0.0 mm 0.02 in0.5 mm
06:30 PM 72.8°F22.7°C 59.9°F15.5°C 64% 2.3 mph N3.7 kmh N 3.5 mph5.6 kmh 30.12 in1020.0 mb - 0.00 in0.0 mm 0.02 in0.5 mm
06:20 PM 72.9°F22.7°C 60.0°F15.6°C 64% 4.6 mph N7.4 kmh N 9.2 mph14.8 kmh 30.12 in1020.0 mb - 0.00 in0.0 mm 0.02 in0.5 mm
06:10 PM 73.1°F22.8°C 60.2°F15.7°C 64% 3.5 mph N5.6 kmh N 11.5 mph18.5 kmh 30.12 in1020.0 mb - 0.00 in0.0 mm 0.02 in0.5 mm
06:00 PM 73.4°F23.0°C 60.5°F15.8°C 64% 5.8 mph N9.3 kmh N 9.2 mph14.8 kmh 30.12 in1020.0 mb - 0.00 in0.0 mm 0.02 in0.5 mm
05:50 PM 73.7°F23.2°C 61.2°F16.2°C 65% 3.5 mph WNW5.6 kmh WNW 4.6 mph7.4 kmh 30.12 in1020.0 mb - 0.00 in0.0 mm 0.02 in0.5 mm
05:40 PM 73.9°F23.3°C 61.0°F16.1°C 64% 4.6 mph NW7.4 kmh NW 9.2 mph14.8 kmh 30.12 in1020.0 mb - 0.00 in0.0 mm 0.02 in0.5 mm
05:30 PM 74.3°F23.5°C 61.3°F16.3°C 64% 4.6 mph NW7.4 kmh NW 8.1 mph13.0 kmh 30.12 in1020.0 mb - 0.00 in0.0 mm 0.02 in0.5 mm
05:20 PM 74.9°F23.8°C 61.5°F16.4°C 63% 3.5 mph NNW5.6 kmh NNW 8.1 mph13.0 kmh 30.12 in1020.0 mb - 0.00 in0.0 mm 0.02 in0.5 mm
05:10 PM 75.1°F23.9°C 61.6°F16.4°C 63% 5.8 mph NNW9.3 kmh NNW 9.2 mph14.8 kmh 30.11 in1019.6 mb - 0.00 in0.0 mm 0.02 in0.5 mm
05:00 PM 75.1°F23.9°C 61.7°F16.5°C 63% 5.8 mph N9.3 kmh N 8.1 mph13.0 kmh 30.11 in1019.6 mb - 0.00 in0.0 mm 0.02 in0.5 mm
04:50 PM 75.8°F24.3°C 62.3°F16.8°C 63% 4.6 mph NNW7.4 kmh NNW 10.4 mph16.7 kmh 30.11 in1019.6 mb - 0.00 in0.0 mm 0.02 in0.5 mm
04:40 PM 75.3°F24.1°C 62.7°F17.1°C 65% 3.5 mph WNW5.6 kmh WNW 8.1 mph13.0 kmh 30.11 in1019.6 mb - 0.00 in0.0 mm 0.02 in0.5 mm
04:30 PM 75.6°F24.2°C 63.4°F17.4°C 66% 4.6 mph NW7.4 kmh NW 11.5 mph18.5 kmh 30.11 in1019.6 mb - 0.00 in0.0 mm 0.02 in0.5 mm
04:20 PM 75.5°F24.2°C 63.8°F17.7°C 67% 4.6 mph W7.4 kmh W 10.4 mph16.7 kmh 30.11 in1019.6 mb - 0.00 in0.0 mm 0.02 in0.5 mm
04:10 PM 75.5°F24.2°C 64.6°F18.1°C 69% 2.3 mph NW3.7 kmh NW 3.5 mph5.6 kmh 30.11 in1019.6 mb - 0.00 in0.0 mm 0.02 in0.5 mm
04:00 PM 75.3°F24.1°C 65.2°F18.4°C 71% 5.8 mph N9.3 kmh N 9.2 mph14.8 kmh 30.11 in1019.6 mb - 0.00 in0.0 mm 0.02 in0.5 mm
03:50 PM 74.1°F23.4°C 64.9°F18.3°C 73% 3.5 mph NW5.6 kmh NW 6.9 mph11.1 kmh 30.11 in1019.6 mb - 0.00 in0.0 mm 0.02 in0.5 mm
03:40 PM 73.3°F22.9°C 64.9°F18.3°C 75% 3.5 mph NW5.6 kmh NW 4.6 mph7.4 kmh 30.11 in1019.6 mb - 0.00 in0.0 mm 0.02 in0.5 mm
03:30 PM 72.9°F22.7°C 64.5°F18.1°C 75% 3.5 mph W5.6 kmh W 4.6 mph7.4 kmh 30.11 in1019.6 mb - 0.00 in0.0 mm 0.02 in0.5 mm
03:20 PM 73.0°F22.8°C 64.6°F18.1°C 75% 2.3 mph NNW3.7 kmh NNW 5.8 mph9.3 kmh 30.11 in1019.6 mb - 0.00 in0.0 mm 0.02 in0.5 mm
03:10 PM 73.3°F22.9°C 64.9°F18.3°C 75% 2.3 mph SW3.7 kmh SW 5.8 mph9.3 kmh 30.11 in1019.6 mb - 0.00 in0.0 mm 0.02 in0.5 mm
03:00 PM 74.1°F23.4°C 65.2°F18.4°C 74% 3.5 mph N5.6 kmh N 5.8 mph9.3 kmh 30.11 in1019.6 mb - 0.00 in0.0 mm 0.02 in0.5 mm
02:50 PM 75.0°F23.9°C 65.4°F18.6°C 72% 4.6 mph NNW7.4 kmh NNW 11.5 mph18.5 kmh 30.11 in1019.6 mb - 0.00 in0.0 mm 0.02 in0.5 mm
02:40 PM 75.2°F24.0°C 65.1°F18.4°C 71% 2.3 mph NW3.7 kmh NW 3.5 mph5.6 kmh 30.11 in1019.6 mb - 0.00 in0.0 mm 0.02 in0.5 mm
02:30 PM 75.0°F23.9°C 65.3°F18.5°C 72% 3.5 mph SW5.6 kmh SW 3.5 mph5.6 kmh 30.11 in1019.6 mb - 0.00 in0.0 mm 0.02 in0.5 mm
02:20 PM 74.0°F23.3°C 65.2°F18.4°C 74% 1.2 mph WSW1.9 kmh WSW 2.3 mph3.7 kmh 30.11 in1019.6 mb - 0.00 in0.0 mm 0.02 in0.5 mm
02:10 PM 73.0°F22.8°C 65.4°F18.6°C 77% 2.3 mph NNW3.7 kmh NNW 5.8 mph9.3 kmh 30.11 in1019.6 mb - 0.00 in0.0 mm 0.02 in0.5 mm
02:00 PM 72.2°F22.3°C 65.3°F18.5°C 79% 2.3 mph N3.7 kmh N 3.5 mph5.6 kmh 30.11 in1019.6 mb - 0.00 in0.0 mm 0.02 in0.5 mm
01:50 PM 72.3°F22.4°C 65.4°F18.6°C 79% 3.5 mph WSW5.6 kmh WSW 4.6 mph7.4 kmh 30.11 in1019.6 mb - 0.00 in0.0 mm 0.02 in0.5 mm
01:40 PM 72.4°F22.4°C 66.2°F19.0°C 81% 2.3 mph WNW3.7 kmh WNW 3.5 mph5.6 kmh 30.11 in1019.6 mb - 0.00 in0.0 mm 0.02 in0.5 mm
01:30 PM 72.7°F22.6°C 65.8°F18.8°C 79% 2.3 mph N3.7 kmh N 3.5 mph5.6 kmh 30.11 in1019.6 mb - 0.00 in0.0 mm 0.02 in0.5 mm
01:20 PM 72.8°F22.7°C 66.3°F19.1°C 80% 2.3 mph SW3.7 kmh SW 2.3 mph3.7 kmh 30.11 in1019.6 mb - 0.00 in0.0 mm 0.02 in0.5 mm
01:10 PM 72.3°F22.4°C 66.8°F19.3°C 83% 2.3 mph W3.7 kmh W 4.6 mph7.4 kmh 30.11 in1019.6 mb - 0.00 in0.0 mm 0.02 in0.5 mm
01:00 PM 72.0°F22.2°C 66.2°F19.0°C 82% 2.3 mph WNW3.7 kmh WNW 2.3 mph3.7 kmh 30.12 in1020.0 mb - 0.00 in0.0 mm 0.02 in0.5 mm
12:50 PM 72.7°F22.6°C 65.8°F18.8°C 79% 3.5 mph NW5.6 kmh NW 5.8 mph9.3 kmh 30.11 in1019.6 mb - 0.00 in0.0 mm 0.02 in0.5 mm
12:40 PM 72.6°F22.6°C 65.3°F18.5°C 78% 3.5 mph SSW5.6 kmh SSW 6.9 mph11.1 kmh 30.11 in1019.6 mb - 0.00 in0.0 mm 0.02 in0.5 mm
12:30 PM 72.7°F22.6°C 65.8°F18.8°C 79% 5.8 mph SSW9.3 kmh SSW 6.9 mph11.1 kmh 30.11 in1019.6 mb - 0.00 in0.0 mm 0.02 in0.5 mm
12:20 PM 72.1°F22.3°C 66.6°F19.2°C 83% 2.3 mph SSW3.7 kmh SSW 4.6 mph7.4 kmh 30.11 in1019.6 mb - 0.00 in0.0 mm 0.02 in0.5 mm
12:10 PM 70.8°F21.6°C 66.1°F18.9°C 85% 2.3 mph NW3.7 kmh NW 3.5 mph5.6 kmh 30.11 in1019.6 mb - 0.01 in0.3 mm 0.02 in0.5 mm
12:00 PM 71.3°F21.8°C 65.5°F18.6°C 82% 2.3 mph NNW3.7 kmh NNW 5.8 mph9.3 kmh 30.11 in1019.6 mb - 0.02 in0.5 mm 0.02 in0.5 mm
11:50 AM 71.9°F22.2°C 65.0°F18.3°C 79% 2.3 mph S3.7 kmh S 4.6 mph7.4 kmh 30.11 in1019.6 mb - 0.00 in0.0 mm 0.00 in0.0 mm
11:40 AM 71.9°F22.2°C 64.7°F18.2°C 78% 4.6 mph S7.4 kmh S 6.9 mph11.1 kmh 30.11 in1019.6 mb - 0.00 in0.0 mm 0.00 in0.0 mm
11:30 AM 70.9°F21.6°C 64.5°F18.1°C 80% 3.5 mph WSW5.6 kmh WSW 4.6 mph7.4 kmh 30.11 in1019.6 mb - 0.00 in0.0 mm 0.00 in0.0 mm
11:20 AM 70.2°F21.2°C 63.7°F17.6°C 80% 5.8 mph S9.3 kmh S 9.2 mph14.8 kmh 30.11 in1019.6 mb - 0.00 in0.0 mm 0.00 in0.0 mm
11:10 AM 69.8°F21.0°C 63.7°F17.6°C 81% 5.8 mph S9.3 kmh S 8.1 mph13.0 kmh 30.12 in1020.0 mb - 0.00 in0.0 mm 0.00 in0.0 mm
11:00 AM 69.7°F20.9°C 63.6°F17.6°C 81% 3.5 mph S5.6 kmh S 5.8 mph9.3 kmh 30.12 in1020.0 mb - 0.00 in0.0 mm 0.00 in0.0 mm
10:50 AM 69.7°F20.9°C 63.6°F17.6°C 81% 3.5 mph SSW5.6 kmh SSW 5.8 mph9.3 kmh 30.12 in1020.0 mb - 0.00 in0.0 mm 0.00 in0.0 mm
10:40 AM 69.7°F20.9°C 63.3°F17.4°C 80% 5.8 mph S9.3 kmh S 6.9 mph11.1 kmh 30.12 in1020.0 mb - 0.00 in0.0 mm 0.00 in0.0 mm
10:30 AM 69.8°F21.0°C 63.3°F17.4°C 80% 6.9 mph SSW11.1 kmh SSW 10.4 mph16.7 kmh 30.11 in1019.6 mb - 0.00 in0.0 mm 0.00 in0.0 mm
10:20 AM 69.8°F21.0°C 63.7°F17.6°C 81% 2.3 mph SSW3.7 kmh SSW 4.6 mph7.4 kmh 30.11 in1019.6 mb - 0.00 in0.0 mm 0.00 in0.0 mm
10:10 AM 69.7°F20.9°C 63.6°F17.6°C 81% 5.8 mph SW9.3 kmh SW 9.2 mph14.8 kmh 30.11 in1019.6 mb - 0.00 in0.0 mm 0.00 in0.0 mm
10:00 AM 69.5°F20.8°C 63.4°F17.4°C 81% 4.6 mph S7.4 kmh S 6.9 mph11.1 kmh 30.11 in1019.6 mb - 0.00 in0.0 mm 0.00 in0.0 mm
09:50 AM 69.1°F20.6°C 63.4°F17.4°C 82% 3.5 mph S5.6 kmh S 5.8 mph9.3 kmh 30.11 in1019.6 mb - 0.00 in0.0 mm 0.00 in0.0 mm
09:40 AM 69.0°F20.6°C 63.3°F17.4°C 82% 2.3 mph SSW3.7 kmh SSW 6.9 mph11.1 kmh 30.11 in1019.6 mb - 0.00 in0.0 mm 0.00 in0.0 mm
09:30 AM 68.9°F20.5°C 63.1°F17.3°C 82% 3.5 mph SW5.6 kmh SW 5.8 mph9.3 kmh 30.11 in1019.6 mb - 0.00 in0.0 mm 0.00 in0.0 mm
09:20 AM 68.6°F20.3°C 63.2°F17.3°C 83% 4.6 mph SSW7.4 kmh SSW 4.6 mph7.4 kmh 30.11 in1019.6 mb - 0.00 in0.0 mm 0.00 in0.0 mm
09:10 AM 68.5°F20.3°C 62.8°F17.1°C 82% 9.2 mph SSW14.8 kmh SSW 11.5 mph18.5 kmh 30.11 in1019.6 mb - 0.00 in0.0 mm 0.00 in0.0 mm
09:00 AM 68.0°F20.0°C 62.7°F17.1°C 83% 2.3 mph SW3.7 kmh SW 4.6 mph7.4 kmh 30.11 in1019.6 mb - 0.00 in0.0 mm 0.00 in0.0 mm
08:50 AM 67.6°F19.8°C 62.6°F17.0°C 84% 5.8 mph SSW9.3 kmh SSW 6.9 mph11.1 kmh 30.11 in1019.6 mb - 0.00 in0.0 mm 0.00 in0.0 mm
08:40 AM 67.3°F19.6°C 62.3°F16.8°C 84% 4.6 mph S7.4 kmh S 6.9 mph11.1 kmh 30.11 in1019.6 mb - 0.00 in0.0 mm 0.00 in0.0 mm
08:30 AM 67.2°F19.6°C 62.2°F16.8°C 84% 4.6 mph S7.4 kmh S 10.4 mph16.7 kmh 30.11 in1019.6 mb - 0.00 in0.0 mm 0.00 in0.0 mm
08:20 AM 67.1°F19.5°C 62.4°F16.9°C 85% 4.6 mph SSW7.4 kmh SSW 10.4 mph16.7 kmh 30.11 in1019.6 mb - 0.00 in0.0 mm 0.00 in0.0 mm
08:10 AM 67.0°F19.4°C 62.3°F16.8°C 85% 4.6 mph S7.4 kmh S 9.2 mph14.8 kmh 30.11 in1019.6 mb - 0.00 in0.0 mm 0.00 in0.0 mm
08:00 AM 66.8°F19.3°C 62.1°F16.7°C 85% 9.2 mph S14.8 kmh S 12.7 mph20.4 kmh 30.11 in1019.6 mb - 0.00 in0.0 mm 0.00 in0.0 mm
07:50 AM 66.6°F19.2°C 62.3°F16.8°C 86% 3.5 mph SSW5.6 kmh SSW 4.6 mph7.4 kmh 30.11 in1019.6 mb - 0.00 in0.0 mm 0.00 in0.0 mm
07:40 AM 66.3°F19.1°C 62.0°F16.7°C 86% 4.6 mph S7.4 kmh S 8.1 mph13.0 kmh 30.11 in1019.6 mb - 0.00 in0.0 mm 0.00 in0.0 mm
07:30 AM 66.1°F18.9°C 62.1°F16.7°C 87% 3.5 mph SW5.6 kmh SW 4.6 mph7.4 kmh 30.11 in1019.6 mb - 0.00 in0.0 mm 0.00 in0.0 mm
07:20 AM 65.8°F18.8°C 61.8°F16.6°C 87% 6.9 mph S11.1 kmh S 6.9 mph11.1 kmh 30.10 in1019.3 mb - 0.00 in0.0 mm 0.00 in0.0 mm
07:10 AM 65.7°F18.7°C 62.0°F16.7°C 88% 3.5 mph S5.6 kmh S 5.8 mph9.3 kmh 30.10 in1019.3 mb - 0.00 in0.0 mm 0.00 in0.0 mm
07:00 AM 65.7°F18.7°C 61.7°F16.5°C 87% 3.5 mph S5.6 kmh S 3.5 mph5.6 kmh 30.10 in1019.3 mb - 0.00 in0.0 mm 0.00 in0.0 mm
06:50 AM 65.9°F18.8°C 61.9°F16.6°C 87% 5.8 mph S9.3 kmh S 8.1 mph13.0 kmh 30.10 in1019.3 mb - 0.00 in0.0 mm 0.00 in0.0 mm
06:40 AM 66.2°F19.0°C 61.6°F16.4°C 85% 2.3 mph S3.7 kmh S 3.5 mph5.6 kmh 30.10 in1019.3 mb - 0.00 in0.0 mm 0.00 in0.0 mm
06:30 AM 66.6°F19.2°C 61.6°F16.4°C 84% 3.5 mph WSW5.6 kmh WSW 5.8 mph9.3 kmh 30.10 in1019.3 mb - 0.00 in0.0 mm 0.00 in0.0 mm
06:20 AM 66.6°F19.2°C 60.9°F16.1°C 82% 4.6 mph SSW7.4 kmh SSW 6.9 mph11.1 kmh 30.10 in1019.3 mb - 0.00 in0.0 mm 0.00 in0.0 mm
06:10 AM 66.6°F19.2°C 61.2°F16.2°C 83% 2.3 mph S3.7 kmh S 4.6 mph7.4 kmh 30.10 in1019.3 mb - 0.00 in0.0 mm 0.00 in0.0 mm
06:00 AM 66.5°F19.2°C 60.8°F16.0°C 82% 5.8 mph S9.3 kmh S 10.4 mph16.7 kmh 30.10 in1019.3 mb - 0.00 in0.0 mm 0.00 in0.0 mm
05:50 AM 66.5°F19.2°C 60.8°F16.0°C 82% 3.5 mph S5.6 kmh S 5.8 mph9.3 kmh 30.10 in1019.3 mb - 0.00 in0.0 mm 0.00 in0.0 mm
05:40 AM 66.5°F19.2°C 60.8°F16.0°C 82% 4.6 mph S7.4 kmh S 4.6 mph7.4 kmh 30.10 in1019.3 mb - 0.00 in0.0 mm 0.00 in0.0 mm
05:30 AM 66.6°F19.2°C 60.6°F15.9°C 81% 4.6 mph SW7.4 kmh SW 6.9 mph11.1 kmh 30.10 in1019.3 mb - 0.00 in0.0 mm 0.00 in0.0 mm
05:20 AM 66.7°F19.3°C 60.7°F15.9°C 81% 3.5 mph SSW5.6 kmh SSW 4.6 mph7.4 kmh 30.10 in1019.3 mb - 0.00 in0.0 mm 0.00 in0.0 mm
05:10 AM 66.8°F19.3°C 60.8°F16.0°C 81% 2.3 mph SW3.7 kmh SW 4.6 mph7.4 kmh 30.09 in1019.0 mb - 0.00 in0.0 mm 0.00 in0.0 mm
05:00 AM 66.9°F19.4°C 60.9°F16.1°C 81% 6.9 mph SSW11.1 kmh SSW 8.1 mph13.0 kmh 30.10 in1019.3 mb - 0.00 in0.0 mm 0.00 in0.0 mm
04:50 AM 67.0°F19.4°C 60.6°F15.9°C 80% 2.3 mph S3.7 kmh S 6.9 mph11.1 kmh 30.10 in1019.3 mb - 0.00 in0.0 mm 0.00 in0.0 mm
04:40 AM 67.1°F19.5°C 60.4°F15.8°C 79% 6.9 mph SSW11.1 kmh SSW 11.5 mph18.5 kmh 30.10 in1019.3 mb - 0.00 in0.0 mm 0.00 in0.0 mm
04:30 AM 67.2°F19.6°C 60.1°F15.6°C 78% 3.5 mph S5.6 kmh S 5.8 mph9.3 kmh 30.10 in1019.3 mb - 0.00 in0.0 mm 0.00 in0.0 mm
04:20 AM 67.4°F19.7°C 60.3°F15.7°C 78% 3.5 mph SSW5.6 kmh SSW 6.9 mph11.1 kmh 30.10 in1019.3 mb - 0.00 in0.0 mm 0.00 in0.0 mm
04:10 AM 67.5°F19.7°C 60.4°F15.8°C 78% 4.6 mph SSW7.4 kmh SSW 6.9 mph11.1 kmh 30.10 in1019.3 mb - 0.00 in0.0 mm 0.00 in0.0 mm
04:00 AM 67.5°F19.7°C 60.4°F15.8°C 78% 3.5 mph S5.6 kmh S 4.6 mph7.4 kmh 30.10 in1019.3 mb - 0.00 in0.0 mm 0.00 in0.0 mm
03:50 AM 67.6°F19.8°C 60.5°F15.8°C 78% 3.5 mph S5.6 kmh S 5.8 mph9.3 kmh 30.10 in1019.3 mb - 0.00 in0.0 mm 0.00 in0.0 mm
03:40 AM 67.6°F19.8°C 60.5°F15.8°C 78% 3.5 mph SSW5.6 kmh SSW 4.6 mph7.4 kmh 30.10 in1019.3 mb - 0.00 in0.0 mm 0.00 in0.0 mm
03:30 AM 67.7°F19.8°C 60.2°F15.7°C 77% 3.5 mph SSW5.6 kmh SSW 5.8 mph9.3 kmh 30.10 in1019.3 mb - 0.00 in0.0 mm 0.00 in0.0 mm
03:20 AM 67.7°F19.8°C 60.2°F15.7°C 77% 3.5 mph SSW5.6 kmh SSW 5.8 mph9.3 kmh 30.11 in1019.6 mb - 0.00 in0.0 mm 0.00 in0.0 mm
03:10 AM 67.8°F19.9°C 59.9°F15.5°C 76% 4.6 mph SW7.4 kmh SW 6.9 mph11.1 kmh 30.10 in1019.3 mb - 0.00 in0.0 mm 0.00 in0.0 mm
03:00 AM 67.9°F19.9°C 60.0°F15.6°C 76% 3.5 mph SSW5.6 kmh SSW 4.6 mph7.4 kmh 30.10 in1019.3 mb - 0.00 in0.0 mm 0.00 in0.0 mm
02:50 AM 67.9°F19.9°C 60.1°F15.6°C 76% 2.3 mph SW3.7 kmh SW 3.5 mph5.6 kmh 30.11 in1019.6 mb - 0.00 in0.0 mm 0.00 in0.0 mm
02:40 AM 68.0°F20.0°C 60.2°F15.7°C 76% 1.2 mph WSW1.9 kmh WSW 4.6 mph7.4 kmh 30.11 in1019.6 mb - 0.00 in0.0 mm 0.00 in0.0 mm
02:30 AM 68.2°F20.1°C 60.3°F15.7°C 76% 3.5 mph W5.6 kmh W 4.6 mph7.4 kmh 30.11 in1019.6 mb - 0.00 in0.0 mm 0.00 in0.0 mm
02:20 AM 68.3°F20.2°C 60.1°F15.6°C 75% 2.3 mph SW3.7 kmh SW 3.5 mph5.6 kmh 30.11 in1019.6 mb - 0.00 in0.0 mm 0.00 in0.0 mm
02:10 AM 68.3°F20.2°C 60.1°F15.6°C 75% 2.3 mph SSW3.7 kmh SSW 4.6 mph7.4 kmh 30.11 in1019.6 mb - 0.00 in0.0 mm 0.00 in0.0 mm
02:00 AM 68.4°F20.2°C 59.8°F15.4°C 74% 3.5 mph SW5.6 kmh SW 8.1 mph13.0 kmh 30.11 in1019.6 mb - 0.00 in0.0 mm 0.00 in0.0 mm
01:50 AM 68.4°F20.2°C 59.8°F15.4°C 74% 1.2 mph WSW1.9 kmh WSW 2.3 mph3.7 kmh 30.11 in1019.6 mb - 0.00 in0.0 mm 0.00 in0.0 mm
01:40 AM 68.4°F20.2°C 59.8°F15.4°C 74% 4.6 mph SW7.4 kmh SW 4.6 mph7.4 kmh 30.11 in1019.6 mb - 0.00 in0.0 mm 0.00 in0.0 mm
01:30 AM 68.4°F20.2°C 60.5°F15.8°C 76% 3.5 mph SSW5.6 kmh SSW 9.2 mph14.8 kmh 30.11 in1019.6 mb - 0.00 in0.0 mm 0.00 in0.0 mm
01:20 AM 68.3°F20.2°C 60.8°F16.0°C 77% Calm Calm 3.5 mph5.6 kmh 30.11 in1019.6 mb - 0.00 in0.0 mm 0.00 in0.0 mm
01:10 AM 68.0°F20.0°C 60.5°F15.8°C 77% 2.3 mph SW3.7 kmh SW 4.6 mph7.4 kmh 30.11 in1019.6 mb - 0.00 in0.0 mm 0.00 in0.0 mm
01:00 AM 67.4°F19.7°C 60.7°F15.9°C 79% 2.3 mph S3.7 kmh S 4.6 mph7.4 kmh 30.11 in1019.6 mb - 0.00 in0.0 mm 0.00 in0.0 mm
12:50 AM 66.3°F19.1°C 61.0°F16.1°C 83% 2.3 mph SSW3.7 kmh SSW 4.6 mph7.4 kmh 30.11 in1019.6 mb - 0.00 in0.0 mm 0.00 in0.0 mm
12:40 AM 65.2°F18.4°C 60.6°F15.9°C 85% 2.3 mph SSW3.7 kmh SSW 3.5 mph5.6 kmh 30.12 in1020.0 mb - 0.00 in0.0 mm 0.00 in0.0 mm
12:30 AM 64.6°F18.1°C 61.0°F16.1°C 88% 2.3 mph S3.7 kmh S 4.6 mph7.4 kmh 30.11 in1019.6 mb - 0.00 in0.0 mm 0.00 in0.0 mm
12:20 AM 64.7°F18.2°C 61.1°F16.2°C 88% Calm Calm -- 30.11 in1019.6 mb - 0.00 in0.0 mm 0.00 in0.0 mm
12:10 AM 64.9°F18.3°C 61.2°F16.2°C 88% Calm Calm -- 30.11 in1019.6 mb - 0.00 in0.0 mm 0.00 in0.0 mm
12:00 AM 65.0°F18.3°C 61.4°F16.3°C 88% Calm Calm -- 30.11 in1019.6 mb - 0.00 in0.0 mm 0.00 in0.0 mm